sensor_id;sensor_type;location;lat;lon;timestamp;P1;durP1;ratioP1;P2;durP2;ratioP2
2544;SDS011;36212;48.838;9.142;2023-04-22T00:01:24;5.95;;;5.50;;
2544;SDS011;36212;48.838;9.142;2023-04-22T00:04:17;6.03;;;5.53;;
2544;SDS011;36212;48.838;9.142;2023-04-22T00:06:52;5.80;;;5.30;;
2544;SDS011;36212;48.838;9.142;2023-04-22T00:09:24;7.95;;;5.82;;
2544;SDS011;36212;48.838;9.142;2023-04-22T00:11:56;7.18;;;6.00;;
2544;SDS011;36212;48.838;9.142;2023-04-22T00:14:31;6.13;;;5.63;;
2544;SDS011;36212;48.838;9.142;2023-04-22T00:17:04;6.13;;;5.55;;
2544;SDS011;36212;48.838;9.142;2023-04-22T00:19:37;5.68;;;5.28;;
2544;SDS011;36212;48.838;9.142;2023-04-22T00:22:10;5.60;;;5.10;;
2544;SDS011;36212;48.838;9.142;2023-04-22T00:24:42;4.93;;;4.53;;
2544;SDS011;36212;48.838;9.142;2023-04-22T00:27:14;4.88;;;4.57;;
2544;SDS011;36212;48.838;9.142;2023-04-22T00:29:48;5.25;;;4.85;;
2544;SDS011;36212;48.838;9.142;2023-04-22T00:32:20;4.75;;;4.35;;
2544;SDS011;36212;48.838;9.142;2023-04-22T00:34:53;4.63;;;4.20;;
2544;SDS011;36212;48.838;9.142;2023-04-22T00:37:26;4.80;;;4.50;;
2544;SDS011;36212;48.838;9.142;2023-04-22T00:39:58;4.63;;;4.30;;
2544;SDS011;36212;48.838;9.142;2023-04-22T00:42:31;4.85;;;4.55;;
2544;SDS011;36212;48.838;9.142;2023-04-22T00:45:03;4.75;;;4.45;;
2544;SDS011;36212;48.838;9.142;2023-04-22T00:47:41;5.32;;;4.93;;
2544;SDS011;36212;48.838;9.142;2023-04-22T00:50:16;6.05;;;5.55;;
2544;SDS011;36212;48.838;9.142;2023-04-22T00:52:48;5.13;;;4.82;;
2544;SDS011;36212;48.838;9.142;2023-04-22T00:55:20;5.85;;;5.38;;
2544;SDS011;36212;48.838;9.142;2023-04-22T00:57:53;6.15;;;5.55;;
2544;SDS011;36212;48.838;9.142;2023-04-22T01:00:29;6.38;;;5.78;;
2544;SDS011;36212;48.838;9.142;2023-04-22T01:03:01;6.28;;;5.72;;
2544;SDS011;36212;48.838;9.142;2023-04-22T01:05:37;5.60;;;5.20;;
2544;SDS011;36212;48.838;9.142;2023-04-22T01:08:11;8.07;;;4.95;;
2544;SDS011;36212;48.838;9.142;2023-04-22T01:10:43;5.90;;;5.40;;
2544;SDS011;36212;48.838;9.142;2023-04-22T01:13:15;5.80;;;5.30;;
2544;SDS011;36212;48.838;9.142;2023-04-22T01:15:47;5.95;;;5.40;;
2544;SDS011;36212;48.838;9.142;2023-04-22T01:18:22;6.32;;;5.82;;
2544;SDS011;36212;48.838;9.142;2023-04-22T01:20:54;5.78;;;5.25;;
2544;SDS011;36212;48.838;9.142;2023-04-22T01:23:26;5.60;;;5.18;;
2544;SDS011;36212;48.838;9.142;2023-04-22T01:25:59;6.07;;;5.55;;
2544;SDS011;36212;48.838;9.142;2023-04-22T01:28:32;6.53;;;6.00;;
2544;SDS011;36212;48.838;9.142;2023-04-22T01:31:04;6.47;;;5.97;;
2544;SDS011;36212;48.838;9.142;2023-04-22T01:33:37;6.15;;;5.30;;
2544;SDS011;36212;48.838;9.142;2023-04-22T01:36:09;5.90;;;5.40;;
2544;SDS011;36212;48.838;9.142;2023-04-22T01:38:43;6.72;;;6.13;;
2544;SDS011;36212;48.838;9.142;2023-04-22T01:41:16;5.20;;;4.63;;
2544;SDS011;36212;48.838;9.142;2023-04-22T01:43:48;5.45;;;5.05;;
2544;SDS011;36212;48.838;9.142;2023-04-22T01:46:22;7.45;;;5.80;;
2544;SDS011;36212;48.838;9.142;2023-04-22T01:48:54;6.50;;;5.90;;
2544;SDS011;36212;48.838;9.142;2023-04-22T01:51:27;6.82;;;5.30;;
2544;SDS011;36212;48.838;9.142;2023-04-22T01:53:59;5.57;;;5.15;;
2544;SDS011;36212;48.838;9.142;2023-04-22T01:56:35;6.55;;;6.05;;
2544;SDS011;36212;48.838;9.142;2023-04-22T01:59:09;6.15;;;5.65;;
2544;SDS011;36212;48.838;9.142;2023-04-22T02:01:41;4.90;;;4.50;;
2544;SDS011;36212;48.838;9.142;2023-04-22T02:04:13;5.75;;;5.35;;
2544;SDS011;36212;48.838;9.142;2023-04-22T02:06:46;5.47;;;5.00;;
2544;SDS011;36212;48.838;9.142;2023-04-22T02:09:18;7.40;;;5.60;;
2544;SDS011;36212;48.838;9.142;2023-04-22T02:11:50;6.47;;;5.88;;
2544;SDS011;36212;48.838;9.142;2023-04-22T02:14:22;8.48;;;6.45;;
2544;SDS011;36212;48.838;9.142;2023-04-22T02:16:55;5.85;;;5.35;;
2544;SDS011;36212;48.838;9.142;2023-04-22T02:19:27;6.30;;;5.80;;
2544;SDS011;36212;48.838;9.142;2023-04-22T02:22:00;6.93;;;6.03;;
2544;SDS011;36212;48.838;9.142;2023-04-22T02:24:32;5.50;;;5.00;;
2544;SDS011;36212;48.838;9.142;2023-04-22T02:27:04;6.35;;;5.85;;
2544;SDS011;36212;48.838;9.142;2023-04-22T02:29:39;6.65;;;5.78;;
2544;SDS011;36212;48.838;9.142;2023-04-22T02:32:12;5.80;;;5.30;;
2544;SDS011;36212;48.838;9.142;2023-04-22T02:34:46;5.70;;;5.20;;
2544;SDS011;36212;48.838;9.142;2023-04-22T02:37:19;6.45;;;5.95;;
2544;SDS011;36212;48.838;9.142;2023-04-22T02:39:52;6.55;;;5.95;;
2544;SDS011;36212;48.838;9.142;2023-04-22T02:42:24;7.35;;;6.65;;
2544;SDS011;36212;48.838;9.142;2023-04-22T02:44:56;6.25;;;5.68;;
2544;SDS011;36212;48.838;9.142;2023-04-22T02:47:28;6.35;;;5.70;;
2544;SDS011;36212;48.838;9.142;2023-04-22T02:50:00;6.60;;;6.00;;
2544;SDS011;36212;48.838;9.142;2023-04-22T02:52:33;5.97;;;5.53;;
2544;SDS011;36212;48.838;9.142;2023-04-22T02:55:05;7.45;;;6.80;;
2544;SDS011;36212;48.838;9.142;2023-04-22T02:57:39;6.75;;;6.18;;
2544;SDS011;36212;48.838;9.142;2023-04-22T03:00:11;6.85;;;6.25;;
2544;SDS011;36212;48.838;9.142;2023-04-22T03:02:44;8.05;;;7.05;;
2544;SDS011;36212;48.838;9.142;2023-04-22T03:05:16;6.15;;;5.65;;
2544;SDS011;36212;48.838;9.142;2023-04-22T03:07:49;6.93;;;6.22;;
2544;SDS011;36212;48.838;9.142;2023-04-22T03:10:22;6.53;;;6.03;;
2544;SDS011;36212;48.838;9.142;2023-04-22T03:12:54;8.23;;;6.50;;
2544;SDS011;36212;48.838;9.142;2023-04-22T03:15:26;7.45;;;6.80;;
2544;SDS011;36212;48.838;9.142;2023-04-22T03:17:58;7.32;;;6.72;;
2544;SDS011;36212;48.838;9.142;2023-04-22T03:20:30;8.25;;;7.45;;
2544;SDS011;36212;48.838;9.142;2023-04-22T03:23:03;8.00;;;7.30;;
2544;SDS011;36212;48.838;9.142;2023-04-22T03:25:38;8.80;;;8.02;;
2544;SDS011;36212;48.838;9.142;2023-04-22T03:28:10;9.15;;;8.25;;
2544;SDS011;36212;48.838;9.142;2023-04-22T03:30:42;10.90;;;8.25;;
2544;SDS011;36212;48.838;9.142;2023-04-22T03:33:14;8.35;;;7.65;;
2544;SDS011;36212;48.838;9.142;2023-04-22T03:35:47;8.93;;;7.93;;
2544;SDS011;36212;48.838;9.142;2023-04-22T03:38:20;8.48;;;7.68;;
2544;SDS011;36212;48.838;9.142;2023-04-22T03:40:52;9.50;;;7.60;;
2544;SDS011;36212;48.838;9.142;2023-04-22T03:43:24;9.45;;;8.65;;
2544;SDS011;36212;48.838;9.142;2023-04-22T03:45:58;9.57;;;7.80;;
2544;SDS011;36212;48.838;9.142;2023-04-22T03:48:30;9.77;;;8.10;;
2544;SDS011;36212;48.838;9.142;2023-04-22T03:51:06;9.10;;;8.40;;
2544;SDS011;36212;48.838;9.142;2023-04-22T03:53:38;9.40;;;8.60;;
2544;SDS011;36212;48.838;9.142;2023-04-22T03:56:10;8.70;;;8.00;;
2544;SDS011;36212;48.838;9.142;2023-04-22T03:58:42;10.52;;;8.43;;
2544;SDS011;36212;48.838;9.142;2023-04-22T04:01:14;8.60;;;7.80;;
2544;SDS011;36212;48.838;9.142;2023-04-22T04:03:47;7.95;;;7.35;;
2544;SDS011;36212;48.838;9.142;2023-04-22T04:06:19;8.45;;;7.75;;
2544;SDS011;36212;48.838;9.142;2023-04-22T04:08:52;7.65;;;6.93;;
2544;SDS011;36212;48.838;9.142;2023-04-22T04:11:24;8.25;;;7.55;;
2544;SDS011;36212;48.838;9.142;2023-04-22T04:13:56;8.75;;;8.15;;
2544;SDS011;36212;48.838;9.142;2023-04-22T04:16:28;8.73;;;8.02;;
2544;SDS011;36212;48.838;9.142;2023-04-22T04:19:00;9.15;;;7.90;;
2544;SDS011;36212;48.838;9.142;2023-04-22T04:21:34;8.88;;;8.02;;
2544;SDS011;36212;48.838;9.142;2023-04-22T04:24:06;7.97;;;7.45;;
2544;SDS011;36212;48.838;9.142;2023-04-22T04:26:38;9.27;;;7.38;;
2544;SDS011;36212;48.838;9.142;2023-04-22T04:29:11;7.63;;;7.03;;
2544;SDS011;36212;48.838;9.142;2023-04-22T04:31:44;9.38;;;8.48;;
2544;SDS011;36212;48.838;9.142;2023-04-22T04:34:16;8.48;;;7.68;;
2544;SDS011;36212;48.838;9.142;2023-04-22T04:36:49;8.40;;;7.60;;
2544;SDS011;36212;48.838;9.142;2023-04-22T04:39:22;8.13;;;7.43;;
2544;SDS011;36212;48.838;9.142;2023-04-22T04:41:55;7.70;;;7.20;;
2544;SDS011;36212;48.838;9.142;2023-04-22T04:44:29;7.93;;;7.22;;
2544;SDS011;36212;48.838;9.142;2023-04-22T04:47:02;7.55;;;6.95;;
2544;SDS011;36212;48.838;9.142;2023-04-22T04:49:36;11.52;;;7.15;;
2544;SDS011;36212;48.838;9.142;2023-04-22T04:52:12;7.32;;;6.68;;
2544;SDS011;36212;48.838;9.142;2023-04-22T04:54:44;8.20;;;7.47;;
2544;SDS011;36212;48.838;9.142;2023-04-22T04:57:17;7.40;;;6.80;;
2544;SDS011;36212;48.838;9.142;2023-04-22T04:59:49;8.50;;;7.72;;
2544;SDS011;36212;48.838;9.142;2023-04-22T05:02:21;8.07;;;7.45;;
2544;SDS011;36212;48.838;9.142;2023-04-22T05:04:55;7.10;;;6.47;;
2544;SDS011;36212;48.838;9.142;2023-04-22T05:07:27;7.80;;;7.10;;
2544;SDS011;36212;48.838;9.142;2023-04-22T05:09:59;8.40;;;7.68;;
2544;SDS011;36212;48.838;9.142;2023-04-22T05:12:32;8.88;;;7.97;;
2544;SDS011;36212;48.838;9.142;2023-04-22T05:15:04;7.85;;;7.25;;
2544;SDS011;36212;48.838;9.142;2023-04-22T05:17:37;8.05;;;7.45;;
2544;SDS011;36212;48.838;9.142;2023-04-22T05:20:09;7.60;;;6.97;;
2544;SDS011;36212;48.838;9.142;2023-04-22T05:22:42;7.97;;;7.30;;
2544;SDS011;36212;48.838;9.142;2023-04-22T05:25:16;8.63;;;7.93;;
2544;SDS011;36212;48.838;9.142;2023-04-22T05:27:48;8.25;;;7.55;;
2544;SDS011;36212;48.838;9.142;2023-04-22T05:30:20;7.75;;;7.05;;
2544;SDS011;36212;48.838;9.142;2023-04-22T05:32:52;8.80;;;7.90;;
2544;SDS011;36212;48.838;9.142;2023-04-22T05:35:25;8.35;;;7.65;;
2544;SDS011;36212;48.838;9.142;2023-04-22T05:37:57;8.95;;;8.25;;
2544;SDS011;36212;48.838;9.142;2023-04-22T05:40:31;8.50;;;7.78;;
2544;SDS011;36212;48.838;9.142;2023-04-22T05:43:03;8.95;;;8.25;;
2544;SDS011;36212;48.838;9.142;2023-04-22T05:45:35;8.25;;;7.55;;
2544;SDS011;36212;48.838;9.142;2023-04-22T05:48:08;9.05;;;8.25;;
2544;SDS011;36212;48.838;9.142;2023-04-22T05:50:40;8.75;;;8.05;;
2544;SDS011;36212;48.838;9.142;2023-04-22T05:53:12;9.25;;;8.52;;
2544;SDS011;36212;48.838;9.142;2023-04-22T05:55:44;9.70;;;8.90;;
2544;SDS011;36212;48.838;9.142;2023-04-22T05:58:16;9.05;;;8.15;;
2544;SDS011;36212;48.838;9.142;2023-04-22T06:00:49;11.27;;;9.13;;
2544;SDS011;36212;48.838;9.142;2023-04-22T06:03:21;9.95;;;8.95;;
2544;SDS011;36212;48.838;9.142;2023-04-22T06:05:54;10.90;;;9.88;;
2544;SDS011;36212;48.838;9.142;2023-04-22T06:08:26;10.48;;;9.40;;
2544;SDS011;36212;48.838;9.142;2023-04-22T06:11:00;10.70;;;8.88;;
2544;SDS011;36212;48.838;9.142;2023-04-22T06:13:32;10.73;;;9.93;;
2544;SDS011;36212;48.838;9.142;2023-04-22T06:16:05;11.60;;;9.93;;
2544;SDS011;36212;48.838;9.142;2023-04-22T06:18:42;10.18;;;9.38;;
2544;SDS011;36212;48.838;9.142;2023-04-22T06:21:14;9.38;;;8.40;;
2544;SDS011;36212;48.838;9.142;2023-04-22T06:23:47;9.27;;;8.48;;
2544;SDS011;36212;48.838;9.142;2023-04-22T06:26:19;9.25;;;8.55;;
2544;SDS011;36212;48.838;9.142;2023-04-22T06:28:51;8.48;;;7.88;;
2544;SDS011;36212;48.838;9.142;2023-04-22T06:31:24;9.02;;;8.32;;
2544;SDS011;36212;48.838;9.142;2023-04-22T06:33:56;9.18;;;8.32;;
2544;SDS011;36212;48.838;9.142;2023-04-22T06:36:28;8.45;;;7.75;;
2544;SDS011;36212;48.838;9.142;2023-04-22T06:39:06;8.68;;;7.88;;
2544;SDS011;36212;48.838;9.142;2023-04-22T06:41:40;9.48;;;7.57;;
2544;SDS011;36212;48.838;9.142;2023-04-22T06:44:14;9.50;;;8.65;;
2544;SDS011;36212;48.838;9.142;2023-04-22T06:46:46;8.30;;;7.60;;
2544;SDS011;36212;48.838;9.142;2023-04-22T06:49:19;8.52;;;7.80;;
2544;SDS011;36212;48.838;9.142;2023-04-22T06:51:51;8.43;;;7.35;;
2544;SDS011;36212;48.838;9.142;2023-04-22T06:54:23;9.10;;;8.30;;
2544;SDS011;36212;48.838;9.142;2023-04-22T06:56:55;8.80;;;8.10;;
2544;SDS011;36212;48.838;9.142;2023-04-22T06:59:28;8.65;;;7.85;;
2544;SDS011;36212;48.838;9.142;2023-04-22T07:02:00;9.65;;;7.90;;
2544;SDS011;36212;48.838;9.142;2023-04-22T07:04:32;8.82;;;8.02;;
2544;SDS011;36212;48.838;9.142;2023-04-22T07:07:06;9.88;;;8.15;;
2544;SDS011;36212;48.838;9.142;2023-04-22T07:09:38;10.05;;;9.18;;
2544;SDS011;36212;48.838;9.142;2023-04-22T07:12:11;11.52;;;10.52;;
2544;SDS011;36212;48.838;9.142;2023-04-22T07:14:44;11.88;;;10.68;;
2544;SDS011;36212;48.838;9.142;2023-04-22T07:17:18;9.45;;;8.65;;
2544;SDS011;36212;48.838;9.142;2023-04-22T07:19:52;13.45;;;10.15;;
2544;SDS011;36212;48.838;9.142;2023-04-22T07:22:25;10.52;;;9.60;;
2544;SDS011;36212;48.838;9.142;2023-04-22T07:24:57;8.50;;;7.70;;
2544;SDS011;36212;48.838;9.142;2023-04-22T07:27:29;8.93;;;8.23;;
2544;SDS011;36212;48.838;9.142;2023-04-22T07:30:01;7.22;;;6.72;;
2544;SDS011;36212;48.838;9.142;2023-04-22T07:32:35;7.40;;;6.80;;
2544;SDS011;36212;48.838;9.142;2023-04-22T07:35:08;8.90;;;7.60;;
2544;SDS011;36212;48.838;9.142;2023-04-22T07:37:40;7.00;;;6.30;;
2544;SDS011;36212;48.838;9.142;2023-04-22T07:40:12;6.50;;;6.10;;
2544;SDS011;36212;48.838;9.142;2023-04-22T07:42:44;6.88;;;6.25;;
2544;SDS011;36212;48.838;9.142;2023-04-22T07:45:16;6.50;;;6.00;;
2544;SDS011;36212;48.838;9.142;2023-04-22T07:47:49;6.72;;;6.22;;
2544;SDS011;36212;48.838;9.142;2023-04-22T07:50:22;6.30;;;5.80;;
2544;SDS011;36212;48.838;9.142;2023-04-22T07:52:54;6.43;;;5.93;;
2544;SDS011;36212;48.838;9.142;2023-04-22T07:56:09;5.72;;;5.22;;
2544;SDS011;36212;48.838;9.142;2023-04-22T07:58:42;7.03;;;5.50;;
2544;SDS011;36212;48.838;9.142;2023-04-22T08:01:17;6.53;;;5.90;;
2544;SDS011;36212;48.838;9.142;2023-04-22T08:03:50;5.93;;;5.53;;
2544;SDS011;36212;48.838;9.142;2023-04-22T08:06:23;5.80;;;5.43;;
2544;SDS011;36212;48.838;9.142;2023-04-22T08:08:57;6.03;;;5.33;;
2544;SDS011;36212;48.838;9.142;2023-04-22T08:11:29;5.33;;;4.97;;
2544;SDS011;36212;48.838;9.142;2023-04-22T08:14:01;5.23;;;4.93;;
2544;SDS011;36212;48.838;9.142;2023-04-22T08:16:34;5.10;;;4.80;;
2544;SDS011;36212;48.838;9.142;2023-04-22T08:19:07;5.20;;;4.90;;
2544;SDS011;36212;48.838;9.142;2023-04-22T08:21:40;5.47;;;5.07;;
2544;SDS011;36212;48.838;9.142;2023-04-22T08:24:12;5.77;;;5.00;;
2544;SDS011;36212;48.838;9.142;2023-04-22T08:26:44;6.33;;;5.20;;
2544;SDS011;36212;48.838;9.142;2023-04-22T08:29:16;6.10;;;5.60;;
2544;SDS011;36212;48.838;9.142;2023-04-22T08:31:49;6.07;;;5.57;;
2544;SDS011;36212;48.838;9.142;2023-04-22T08:34:21;4.70;;;4.40;;
2544;SDS011;36212;48.838;9.142;2023-04-22T08:36:56;5.50;;;5.10;;
2544;SDS011;36212;48.838;9.142;2023-04-22T08:39:29;5.17;;;4.77;;
2544;SDS011;36212;48.838;9.142;2023-04-22T08:42:02;5.20;;;4.80;;
2544;SDS011;36212;48.838;9.142;2023-04-22T08:44:34;5.13;;;4.83;;
2544;SDS011;36212;48.838;9.142;2023-04-22T08:47:08;5.97;;;5.00;;
2544;SDS011;36212;48.838;9.142;2023-04-22T08:49:44;6.27;;;5.40;;
2544;SDS011;36212;48.838;9.142;2023-04-22T08:52:17;5.60;;;5.10;;
2544;SDS011;36212;48.838;9.142;2023-04-22T08:54:52;5.70;;;5.30;;
2544;SDS011;36212;48.838;9.142;2023-04-22T08:57:29;5.00;;;4.70;;
2544;SDS011;36212;48.838;9.142;2023-04-22T09:00:05;4.60;;;4.30;;
2544;SDS011;36212;48.838;9.142;2023-04-22T09:02:40;4.87;;;4.50;;
2544;SDS011;36212;48.838;9.142;2023-04-22T09:05:18;5.17;;;4.77;;
2544;SDS011;36212;48.838;9.142;2023-04-22T09:08:11;5.20;;;4.67;;
2544;SDS011;36212;48.838;9.142;2023-04-22T09:10:44;4.40;;;4.10;;
2544;SDS011;36212;48.838;9.142;2023-04-22T09:13:16;4.60;;;4.30;;
2544;SDS011;36212;48.838;9.142;2023-04-22T09:15:50;4.87;;;4.13;;
2544;SDS011;36212;48.838;9.142;2023-04-22T09:18:22;4.23;;;3.77;;
2544;SDS011;36212;48.838;9.142;2023-04-22T09:20:54;4.37;;;3.97;;
2544;SDS011;36212;48.838;9.142;2023-04-22T09:23:27;4.27;;;3.97;;
2544;SDS011;36212;48.838;9.142;2023-04-22T09:26:00;4.27;;;3.97;;
2544;SDS011;36212;48.838;9.142;2023-04-22T09:28:32;3.90;;;3.70;;
2544;SDS011;36212;48.838;9.142;2023-04-22T09:31:17;4.00;;;3.80;;
2544;SDS011;36212;48.838;9.142;2023-04-22T09:33:56;3.30;;;3.10;;
2544;SDS011;36212;48.838;9.142;2023-04-22T09:36:30;3.63;;;3.33;;
2544;SDS011;36212;48.838;9.142;2023-04-22T09:39:08;3.40;;;3.20;;
2544;SDS011;36212;48.838;9.142;2023-04-22T09:41:40;3.33;;;3.13;;
2544;SDS011;36212;48.838;9.142;2023-04-22T09:44:14;3.20;;;3.00;;
2544;SDS011;36212;48.838;9.142;2023-04-22T09:46:48;4.37;;;2.63;;
2544;SDS011;36212;48.838;9.142;2023-04-22T09:49:23;3.37;;;3.07;;
2544;SDS011;36212;48.838;9.142;2023-04-22T09:51:58;3.63;;;2.87;;
2544;SDS011;36212;48.838;9.142;2023-04-22T09:54:30;3.10;;;2.90;;
2544;SDS011;36212;48.838;9.142;2023-04-22T09:57:02;3.30;;;3.10;;
2544;SDS011;36212;48.838;9.142;2023-04-22T09:59:42;3.97;;;2.97;;
2544;SDS011;36212;48.838;9.142;2023-04-22T10:02:15;4.67;;;2.73;;
2544;SDS011;36212;48.838;9.142;2023-04-22T10:04:47;2.60;;;2.40;;
2544;SDS011;36212;48.838;9.142;2023-04-22T10:07:20;2.90;;;2.70;;
2544;SDS011;36212;48.838;9.142;2023-04-22T10:09:53;2.63;;;2.53;;
2544;SDS011;36212;48.838;9.142;2023-04-22T10:12:25;2.80;;;2.60;;
2544;SDS011;36212;48.838;9.142;2023-04-22T10:15:06;3.20;;;2.30;;
2544;SDS011;36212;48.838;9.142;2023-04-22T10:17:40;3.60;;;2.63;;
2544;SDS011;36212;48.838;9.142;2023-04-22T10:20:16;2.90;;;2.70;;
2544;SDS011;36212;48.838;9.142;2023-04-22T10:22:51;2.33;;;2.17;;
2544;SDS011;36212;48.838;9.142;2023-04-22T10:25:26;2.20;;;2.10;;
2544;SDS011;36212;48.838;9.142;2023-04-22T10:30:37;3.43;;;2.47;;
2544;SDS011;36212;48.838;9.142;2023-04-22T10:41:40;2.50;;;2.30;;
2544;SDS011;36212;48.838;9.142;2023-04-22T10:44:26;2.60;;;2.40;;
2544;SDS011;36212;48.838;9.142;2023-04-22T10:47:27;2.20;;;2.10;;
2544;SDS011;36212;48.838;9.142;2023-04-22T10:52:57;2.87;;;1.90;;
2544;SDS011;36212;48.838;9.142;2023-04-22T10:56:14;2.30;;;2.13;;
2544;SDS011;36212;48.838;9.142;2023-04-22T10:58:48;2.17;;;2.00;;
2544;SDS011;36212;48.838;9.142;2023-04-22T11:01:20;2.27;;;2.10;;
2544;SDS011;36212;48.838;9.142;2023-04-22T11:04:17;2.17;;;2.03;;
2544;SDS011;36212;48.838;9.142;2023-04-22T11:10:00;2.13;;;1.80;;
2544;SDS011;36212;48.838;9.142;2023-04-22T11:13:00;2.10;;;2.00;;
2544;SDS011;36212;48.838;9.142;2023-04-22T11:15:34;2.13;;;1.93;;
2544;SDS011;36212;48.838;9.142;2023-04-22T11:18:12;2.33;;;2.10;;
2544;SDS011;36212;48.838;9.142;2023-04-22T11:20:49;2.60;;;2.30;;
2544;SDS011;36212;48.838;9.142;2023-04-22T11:23:24;2.43;;;2.20;;
2544;SDS011;36212;48.838;9.142;2023-04-22T11:25:58;2.47;;;2.27;;
2544;SDS011;36212;48.838;9.142;2023-04-22T11:28:43;2.57;;;2.37;;
2544;SDS011;36212;48.838;9.142;2023-04-22T11:31:17;2.43;;;2.23;;
2544;SDS011;36212;48.838;9.142;2023-04-22T11:33:49;1.87;;;1.77;;
2544;SDS011;36212;48.838;9.142;2023-04-22T11:36:22;1.83;;;1.73;;
2544;SDS011;36212;48.838;9.142;2023-04-22T11:38:55;2.17;;;2.03;;
2544;SDS011;36212;48.838;9.142;2023-04-22T11:41:27;2.23;;;2.03;;
2544;SDS011;36212;48.838;9.142;2023-04-22T11:44:22;2.27;;;2.00;;
2544;SDS011;36212;48.838;9.142;2023-04-22T11:46:55;2.07;;;1.97;;
2544;SDS011;36212;48.838;9.142;2023-04-22T11:49:28;2.03;;;1.93;;
2544;SDS011;36212;48.838;9.142;2023-04-22T11:52:03;2.63;;;1.90;;
2544;SDS011;36212;48.838;9.142;2023-04-22T11:54:35;2.10;;;2.00;;
2544;SDS011;36212;48.838;9.142;2023-04-22T11:57:08;2.13;;;2.03;;
2544;SDS011;36212;48.838;9.142;2023-04-22T11:59:55;2.00;;;1.90;;
2544;SDS011;36212;48.838;9.142;2023-04-22T12:02:28;2.43;;;2.03;;
2544;SDS011;36212;48.838;9.142;2023-04-22T12:05:01;2.30;;;2.20;;
2544;SDS011;36212;48.838;9.142;2023-04-22T12:07:38;2.50;;;2.17;;
2544;SDS011;36212;48.838;9.142;2023-04-22T12:10:12;2.10;;;2.00;;
2544;SDS011;36212;48.838;9.142;2023-04-22T12:12:44;1.90;;;1.80;;
2544;SDS011;36212;48.838;9.142;2023-04-22T12:15:17;2.40;;;2.20;;
2544;SDS011;36212;48.838;9.142;2023-04-22T12:17:50;2.37;;;2.17;;
2544;SDS011;36212;48.838;9.142;2023-04-22T12:20:23;2.40;;;2.20;;
2544;SDS011;36212;48.838;9.142;2023-04-22T12:23:02;2.40;;;2.20;;
2544;SDS011;36212;48.838;9.142;2023-04-22T12:25:35;2.73;;;1.97;;
2544;SDS011;36212;48.838;9.142;2023-04-22T12:28:07;2.27;;;2.17;;
2544;SDS011;36212;48.838;9.142;2023-04-22T12:30:40;2.37;;;2.10;;
2544;SDS011;36212;48.838;9.142;2023-04-22T12:33:12;2.27;;;2.07;;
2544;SDS011;36212;48.838;9.142;2023-04-22T12:35:45;5.47;;;2.50;;
2544;SDS011;36212;48.838;9.142;2023-04-22T12:38:22;4.30;;;2.60;;
2544;SDS011;36212;48.838;9.142;2023-04-22T12:40:56;3.73;;;2.27;;
2544;SDS011;36212;48.838;9.142;2023-04-22T12:43:28;2.37;;;2.17;;
2544;SDS011;36212;48.838;9.142;2023-04-22T12:46:06;3.60;;;2.70;;
2544;SDS011;36212;48.838;9.142;2023-04-22T12:48:39;3.10;;;2.70;;
2544;SDS011;36212;48.838;9.142;2023-04-22T12:51:13;2.43;;;2.23;;
2544;SDS011;36212;48.838;9.142;2023-04-22T12:53:45;1.90;;;1.80;;
2544;SDS011;36212;48.838;9.142;2023-04-22T12:56:17;3.17;;;1.97;;
2544;SDS011;36212;48.838;9.142;2023-04-22T12:58:49;2.60;;;2.00;;
2544;SDS011;36212;48.838;9.142;2023-04-22T13:01:21;2.53;;;1.90;;
2544;SDS011;36212;48.838;9.142;2023-04-22T13:03:53;2.17;;;1.90;;
2544;SDS011;36212;48.838;9.142;2023-04-22T13:06:26;5.03;;;2.40;;
2544;SDS011;36212;48.838;9.142;2023-04-22T13:09:00;4.13;;;2.13;;
2544;SDS011;36212;48.838;9.142;2023-04-22T13:11:33;2.47;;;2.27;;
2544;SDS011;36212;48.838;9.142;2023-04-22T13:14:07;2.00;;;1.90;;
2544;SDS011;36212;48.838;9.142;2023-04-22T13:16:39;2.37;;;2.17;;
2544;SDS011;36212;48.838;9.142;2023-04-22T13:19:12;5.13;;;2.23;;
2544;SDS011;36212;48.838;9.142;2023-04-22T13:24:30;2.10;;;1.90;;
2544;SDS011;36212;48.838;9.142;2023-04-22T13:27:02;3.60;;;2.80;;
2544;SDS011;36212;48.838;9.142;2023-04-22T13:29:55;3.40;;;3.10;;
2544;SDS011;36212;48.838;9.142;2023-04-22T13:32:27;5.20;;;2.93;;
2544;SDS011;36212;48.838;9.142;2023-04-22T13:35:00;2.83;;;2.73;;
2544;SDS011;36212;48.838;9.142;2023-04-22T13:37:34;3.10;;;2.80;;
2544;SDS011;36212;48.838;9.142;2023-04-22T13:40:07;2.63;;;2.43;;
2544;SDS011;36212;48.838;9.142;2023-04-22T13:42:40;2.67;;;2.47;;
2544;SDS011;36212;48.838;9.142;2023-04-22T13:45:13;2.70;;;2.60;;
2544;SDS011;36212;48.838;9.142;2023-04-22T13:47:45;2.73;;;2.53;;
2544;SDS011;36212;48.838;9.142;2023-04-22T13:50:18;2.80;;;2.60;;
2544;SDS011;36212;48.838;9.142;2023-04-22T13:52:51;3.10;;;2.80;;
2544;SDS011;36212;48.838;9.142;2023-04-22T13:55:24;2.57;;;2.47;;
2544;SDS011;36212;48.838;9.142;2023-04-22T13:57:57;3.97;;;2.97;;
2544;SDS011;36212;48.838;9.142;2023-04-22T14:00:30;3.20;;;3.00;;
2544;SDS011;36212;48.838;9.142;2023-04-22T14:03:03;3.37;;;3.13;;
2544;SDS011;36212;48.838;9.142;2023-04-22T14:05:36;3.73;;;3.17;;
2544;SDS011;36212;48.838;9.142;2023-04-22T14:08:13;4.17;;;3.33;;
2544;SDS011;36212;48.838;9.142;2023-04-22T14:10:45;2.27;;;2.17;;
2544;SDS011;36212;48.838;9.142;2023-04-22T14:13:17;2.63;;;2.43;;
2544;SDS011;36212;48.838;9.142;2023-04-22T14:15:52;3.70;;;3.40;;
2544;SDS011;36212;48.838;9.142;2023-04-22T14:18:24;3.67;;;2.67;;
2544;SDS011;36212;48.838;9.142;2023-04-22T14:20:57;2.30;;;2.20;;
2544;SDS011;36212;48.838;9.142;2023-04-22T14:23:29;2.90;;;2.70;;
2544;SDS011;36212;48.838;9.142;2023-04-22T14:26:02;3.23;;;2.70;;
2544;SDS011;36212;48.838;9.142;2023-04-22T14:28:54;3.10;;;2.80;;
2544;SDS011;36212;48.838;9.142;2023-04-22T14:31:27;2.83;;;2.50;;
2544;SDS011;36212;48.838;9.142;2023-04-22T14:33:59;5.07;;;4.73;;
2544;SDS011;36212;48.838;9.142;2023-04-22T14:36:31;5.60;;;2.60;;
2544;SDS011;36212;48.838;9.142;2023-04-22T14:39:04;7.03;;;3.10;;
2544;SDS011;36212;48.838;9.142;2023-04-22T14:41:37;2.90;;;2.33;;
2544;SDS011;36212;48.838;9.142;2023-04-22T14:44:09;2.60;;;2.43;;
2544;SDS011;36212;48.838;9.142;2023-04-22T14:46:42;2.93;;;2.60;;
2544;SDS011;36212;48.838;9.142;2023-04-22T14:49:15;5.13;;;2.37;;
2544;SDS011;36212;48.838;9.142;2023-04-22T14:51:47;3.40;;;2.90;;
2544;SDS011;36212;48.838;9.142;2023-04-22T14:54:20;2.80;;;2.60;;
2544;SDS011;36212;48.838;9.142;2023-04-22T14:56:52;2.27;;;2.17;;
2544;SDS011;36212;48.838;9.142;2023-04-22T14:59:25;2.83;;;2.53;;
2544;SDS011;36212;48.838;9.142;2023-04-22T15:01:58;2.23;;;2.13;;
2544;SDS011;36212;48.838;9.142;2023-04-22T15:04:30;2.77;;;2.50;;
2544;SDS011;36212;48.838;9.142;2023-04-22T15:07:02;2.40;;;2.20;;
2544;SDS011;36212;48.838;9.142;2023-04-22T15:09:38;3.53;;;2.23;;
2544;SDS011;36212;48.838;9.142;2023-04-22T15:12:11;2.80;;;2.60;;
2544;SDS011;36212;48.838;9.142;2023-04-22T15:14:43;3.20;;;1.80;;
2544;SDS011;36212;48.838;9.142;2023-04-22T15:17:15;3.37;;;2.13;;
2544;SDS011;36212;48.838;9.142;2023-04-22T15:19:47;5.60;;;2.77;;
2544;SDS011;36212;48.838;9.142;2023-04-22T15:22:23;2.30;;;2.20;;
2544;SDS011;36212;48.838;9.142;2023-04-22T15:24:55;4.77;;;2.03;;
2544;SDS011;36212;48.838;9.142;2023-04-22T15:27:27;2.57;;;2.27;;
2544;SDS011;36212;48.838;9.142;2023-04-22T15:30:00;5.27;;;2.07;;
2544;SDS011;36212;48.838;9.142;2023-04-22T15:35:33;2.27;;;2.00;;
2544;SDS011;36212;48.838;9.142;2023-04-22T15:38:18;2.27;;;1.97;;
2544;SDS011;36212;48.838;9.142;2023-04-22T15:40:50;2.37;;;2.27;;
2544;SDS011;36212;48.838;9.142;2023-04-22T15:43:22;2.40;;;2.20;;
2544;SDS011;36212;48.838;9.142;2023-04-22T15:45:56;3.33;;;2.27;;
2544;SDS011;36212;48.838;9.142;2023-04-22T15:48:30;2.00;;;1.90;;
2544;SDS011;36212;48.838;9.142;2023-04-22T15:51:03;2.40;;;2.20;;
2544;SDS011;36212;48.838;9.142;2023-04-22T15:53:35;2.40;;;1.70;;
2544;SDS011;36212;48.838;9.142;2023-04-22T15:56:08;2.80;;;2.57;;
2544;SDS011;36212;48.838;9.142;2023-04-22T15:58:41;2.27;;;2.17;;
2544;SDS011;36212;48.838;9.142;2023-04-22T16:01:14;5.40;;;2.20;;
2544;SDS011;36212;48.838;9.142;2023-04-22T16:03:50;2.37;;;2.17;;